Time;durP1;ratioP1;P1;durP2;ratioP2;P2;SDS_P1;SDS_P2;PMS_P1;PMS_P2;Temp;Humidity;BMP_temperature;BMP_pressure;BME280_temperature;BME280_humidity;BME280_pressure;Samples;Min_cycle;Max_cycle;Signal;HPM_P1;HPM_P2
2022/04/08 00:01:04;;;;;;;1.10;0.80;;;16.10;58.60;;;;;;5037427;28;20178;-92
2022/04/08 00:03:30;;;;;;;1.20;0.80;;;16.10;58.60;;;;;;5036653;28;20181;-92
2022/04/08 00:05:57;;;;;;;0.80;0.70;;;16.10;58.60;;;;;;5036844;28;20503;-92
2022/04/08 00:08:23;;;;;;;1.10;0.70;;;16.10;58.50;;;;;;5037512;28;20416;-93
2022/04/08 00:10:49;;;;;;;1.37;0.80;;;16.10;58.50;;;;;;5030270;28;20285;-95
2022/04/08 00:13:17;;;;;;;1.37;0.83;;;16.10;58.50;;;;;;5036012;28;20176;-95
2022/04/08 00:15:43;;;;;;;1.57;0.70;;;16.10;58.50;;;;;;5035283;28;20192;-94
2022/04/08 00:18:08;;;;;;;1.40;0.90;;;16.10;58.50;;;;;;5036761;28;20297;-93
2022/04/08 00:20:35;;;;;;;1.13;0.77;;;16.10;58.50;;;;;;5038773;28;20180;-94
2022/04/08 00:23:04;;;;;;;1.00;0.70;;;16.10;58.50;;;;;;5040800;28;20349;-94
2022/04/08 00:25:30;;;;;;;1.63;1.00;;;16.10;58.50;;;;;;5039296;28;20181;-94
2022/04/08 00:27:56;;;;;;;1.33;0.77;;;16.10;58.40;;;;;;5039224;28;20181;-94
2022/04/08 00:30:21;;;;;;;1.67;0.90;;;16.10;58.50;;;;;;5040420;28;20527;-94
2022/04/08 00:32:51;;;;;;;1.60;0.87;;;16.10;58.40;;;;;;5040295;28;20185;-95
2022/04/08 00:35:16;;;;;;;1.53;0.70;;;16.10;58.40;;;;;;5039348;28;20280;-94
2022/04/08 00:37:42;;;;;;;1.30;0.73;;;16.10;58.30;;;;;;5037198;28;20475;-94
2022/04/08 00:40:10;;;;;;;2.63;1.00;;;16.00;58.30;;;;;;5039785;28;20582;-95
2022/04/08 00:42:37;;;;;;;1.53;0.70;;;16.10;58.30;;;;;;5041189;28;20177;-93
2022/04/08 00:45:03;;;;;;;1.63;0.70;;;16.00;58.30;;;;;;5035965;28;20173;-91
2022/04/08 00:47:29;;;;;;;1.40;0.90;;;16.00;58.40;;;;;;5036449;28;20222;-93
2022/04/08 00:49:55;;;;;;;3.10;0.80;;;16.00;58.40;;;;;;5036864;28;20173;-92
2022/04/08 00:52:21;;;;;;;1.73;1.00;;;16.00;58.50;;;;;;5034599;28;20438;-92
2022/04/08 00:54:48;;;;;;;1.57;0.80;;;16.00;58.50;;;;;;5035432;28;20205;-92
2022/04/08 00:57:14;;;;;;;1.47;0.90;;;16.00;58.40;;;;;;5034515;28;20182;-92
2022/04/08 00:59:40;;;;;;;1.27;0.77;;;16.00;58.70;;;;;;5033356;28;20175;-92
2022/04/08 01:02:06;;;;;;;1.13;0.73;;;16.10;58.20;;;;;;5035242;28;20539;-92
2022/04/08 01:04:32;;;;;;;1.37;0.80;;;16.10;57.90;;;;;;5034027;28;20239;-92
2022/04/08 01:06:58;;;;;;;1.30;0.80;;;16.20;57.80;;;;;;5035719;28;20206;-92
2022/04/08 01:09:25;;;;;;;1.00;0.70;;;16.30;57.60;;;;;;5035535;28;20221;-91
2022/04/08 01:11:51;;;;;;;1.70;0.73;;;16.30;57.40;;;;;;5035036;28;20203;-92
2022/04/08 01:14:17;;;;;;;1.90;0.87;;;16.40;57.20;;;;;;5035782;28;20169;-92
2022/04/08 01:16:44;;;;;;;1.10;0.80;;;16.40;57.10;;;;;;5035882;28;20542;-93
2022/04/08 01:19:10;;;;;;;1.20;0.90;;;16.50;56.80;;;;;;5035114;28;20599;-93
2022/04/08 01:21:35;;;;;;;1.20;0.70;;;16.50;56.70;;;;;;5033930;28;20278;-93
2022/04/08 01:24:03;;;;;;;1.47;0.60;;;16.50;56.70;;;;;;5035122;28;20226;-92
2022/04/08 01:26:28;;;;;;;0.50;0.50;;;16.50;56.60;;;;;;5033464;28;20187;-92
2022/04/08 01:28:56;;;;;;;1.83;0.90;;;16.50;56.60;;;;;;5034931;28;20193;-92
2022/04/08 01:31:24;;;;;;;2.40;0.90;;;16.50;56.60;;;;;;5034310;28;20293;-93
2022/04/08 01:33:52;;;;;;;1.40;0.80;;;16.50;56.50;;;;;;5035427;28;20185;-92
2022/04/08 01:36:18;;;;;;;1.73;0.70;;;16.50;56.50;;;;;;5034863;28;20187;-93
2022/04/08 01:38:44;;;;;;;0.67;0.67;;;16.50;56.50;;;;;;5034465;28;20293;-93
2022/04/08 01:41:10;;;;;;;1.27;0.87;;;16.50;56.50;;;;;;5035582;28;20185;-92
2022/04/08 01:43:36;;;;;;;1.23;0.73;;;16.50;56.60;;;;;;5033715;28;20275;-92
2022/04/08 01:46:02;;;;;;;1.00;0.70;;;16.50;56.60;;;;;;5034623;28;20178;-93
2022/04/08 01:48:28;;;;;;;1.43;0.83;;;16.50;56.60;;;;;;5032694;28;20178;-93
2022/04/08 01:50:53;;;;;;;1.10;1.00;;;16.50;56.50;;;;;;5035012;28;20186;-92
2022/04/08 01:53:19;;;;;;;1.77;0.90;;;16.50;56.50;;;;;;5035529;28;20187;-93
2022/04/08 01:55:45;;;;;;;1.33;0.80;;;16.50;56.50;;;;;;5036571;28;20227;-92
2022/04/08 01:58:11;;;;;;;1.20;0.80;;;16.50;56.60;;;;;;5035448;28;20280;-92
2022/04/08 02:00:40;;;;;;;1.90;0.70;;;16.50;56.60;;;;;;5034755;28;20261;-93
2022/04/08 02:03:06;;;;;;;0.90;0.80;;;16.40;56.60;;;;;;5035395;28;20189;-92
2022/04/08 02:05:32;;;;;;;1.30;0.70;;;16.40;56.60;;;;;;5034470;28;20476;-92
2022/04/08 02:07:58;;;;;;;1.07;0.93;;;16.40;56.60;;;;;;5034075;28;20173;-94
2022/04/08 02:10:25;;;;;;;1.07;0.90;;;16.40;56.60;;;;;;5034970;28;20313;-93
2022/04/08 02:12:52;;;;;;;1.83;0.70;;;16.40;56.70;;;;;;5034605;28;20178;-93
2022/04/08 02:15:28;;;;;;;1.20;0.90;;;16.40;56.70;;;;;;5036232;28;20176;-93
2022/04/08 02:17:54;;;;;;;1.00;0.80;;;16.40;56.60;;;;;;5035744;28;20635;-93
2022/04/08 02:20:20;;;;;;;0.83;0.70;;;16.40;56.70;;;;;;5035949;28;20271;-92
2022/04/08 02:22:46;;;;;;;1.77;1.00;;;16.30;56.70;;;;;;5036206;28;20213;-93
2022/04/08 02:25:28;;;;;;;1.40;0.80;;;16.30;56.70;;;;;;5036505;28;20562;-93
2022/04/08 02:27:53;;;;;;;1.70;0.80;;;16.30;56.70;;;;;;5035619;28;20182;-93
2022/04/08 02:30:20;;;;;;;1.70;0.93;;;16.40;56.70;;;;;;5033440;28;20206;-93
2022/04/08 02:32:46;;;;;;;1.47;0.80;;;16.40;56.70;;;;;;5035478;28;20212;-93
2022/04/08 02:35:12;;;;;;;1.67;0.90;;;16.30;56.70;;;;;;5033685;28;20178;-93
2022/04/08 02:37:39;;;;;;;1.17;0.87;;;16.30;56.70;;;;;;5035330;28;20193;-93
2022/04/08 02:40:06;;;;;;;2.07;0.90;;;16.30;56.90;;;;;;5034775;28;20217;-93
2022/04/08 02:42:31;;;;;;;1.13;0.80;;;16.20;57.00;;;;;;5034548;28;20203;-91
2022/04/08 02:44:58;;;;;;;1.93;1.00;;;16.20;57.10;;;;;;5033991;28;20225;-92
2022/04/08 02:47:23;;;;;;;1.63;0.83;;;16.10;57.20;;;;;;5035384;28;20205;-94
2022/04/08 02:49:50;;;;;;;1.13;0.80;;;16.10;57.40;;;;;;5034931;28;20180;-93
2022/04/08 02:52:15;;;;;;;1.10;0.77;;;16.00;57.50;;;;;;5032880;28;20175;-93
2022/04/08 02:54:41;;;;;;;1.27;0.80;;;16.00;57.60;;;;;;5032878;28;20332;-94
2022/04/08 02:57:07;;;;;;;2.47;1.07;;;15.90;57.70;;;;;;5033515;28;20169;-92
2022/04/08 02:59:32;;;;;;;1.27;0.70;;;15.90;57.80;;;;;;5033145;28;20460;-92
2022/04/08 03:01:59;;;;;;;1.20;0.80;;;15.90;57.90;;;;;;5033797;28;20213;-92
2022/04/08 03:04:25;;;;;;;0.83;0.70;;;15.80;58.00;;;;;;5033212;28;20174;-92
2022/04/08 03:06:52;;;;;;;1.10;0.80;;;16.00;57.90;;;;;;5033678;28;20545;-91
2022/04/08 03:09:18;;;;;;;1.23;0.70;;;16.80;55.90;;;;;;5033359;28;20508;-92
2022/04/08 03:11:44;;;;;;;1.97;0.80;;;17.50;54.10;;;;;;5033603;28;20184;-92
2022/04/08 03:14:10;;;;;;;0.80;0.70;;;18.60;51.80;;;;;;5032798;28;20178;-92
2022/04/08 03:16:36;;;;;;;1.07;0.80;;;19.70;49.60;;;;;;5031951;28;20176;-92
2022/04/08 03:19:01;;;;;;;1.10;0.80;;;20.50;48.00;;;;;;5031211;28;20273;-92
2022/04/08 03:21:27;;;;;;;1.13;0.80;;;21.10;46.90;;;;;;5033040;28;20265;-92
2022/04/08 03:23:54;;;;;;;2.00;0.80;;;21.50;46.10;;;;;;5032843;28;20169;-92
2022/04/08 03:26:19;;;;;;;1.47;1.00;;;21.80;45.40;;;;;;5033191;28;20171;-92
2022/04/08 03:28:46;;;;;;;1.47;0.80;;;21.90;45.10;;;;;;5033386;28;20204;-92
2022/04/08 03:31:12;;;;;;;0.97;0.80;;;22.00;44.80;;;;;;5033023;28;20618;-92
2022/04/08 03:33:38;;;;;;;1.43;0.93;;;21.90;44.70;;;;;;5032808;28;20178;-92
2022/04/08 03:36:07;;;;;;;1.23;0.83;;;21.80;45.00;;;;;;5031581;28;20176;-92
2022/04/08 03:38:33;;;;;;;1.23;0.80;;;21.50;45.00;;;;;;5030406;28;20578;-92
2022/04/08 03:41:00;;;;;;;1.10;0.80;;;21.20;45.30;;;;;;5032133;28;20184;-92
2022/04/08 03:43:27;;;;;;;1.10;0.80;;;20.80;45.70;;;;;;5031734;28;20184;-92
2022/04/08 03:45:53;;;;;;;1.37;1.00;;;20.40;46.10;;;;;;5032073;28;20283;-92
2022/04/08 03:48:18;;;;;;;1.67;0.87;;;20.10;46.60;;;;;;5033097;28;20299;-92
2022/04/08 03:50:44;;;;;;;1.83;1.10;;;20.00;46.90;;;;;;5036056;28;20203;-92
2022/04/08 03:53:12;;;;;;;1.20;0.90;;;19.70;47.30;;;;;;5036993;28;20172;-92
2022/04/08 03:55:39;;;;;;;1.77;1.00;;;19.40;47.60;;;;;;5035857;28;21032;-92
2022/04/08 03:58:05;;;;;;;1.00;0.80;;;19.30;47.90;;;;;;5035213;28;20583;-92
2022/04/08 04:00:31;;;;;;;1.30;0.87;;;19.00;48.30;;;;;;5033162;28;20181;-92
2022/04/08 04:02:56;;;;;;;0.90;0.70;;;18.80;48.70;;;;;;5032813;28;20176;-92
2022/04/08 04:05:22;;;;;;;1.33;1.00;;;18.50;49.10;;;;;;5034617;28;20487;-92
2022/04/08 04:07:48;;;;;;;1.13;0.90;;;18.30;49.50;;;;;;5035804;28;20196;-92
2022/04/08 04:10:14;;;;;;;1.40;0.80;;;18.10;49.90;;;;;;5035538;28;20442;-92
2022/04/08 04:12:42;;;;;;;1.67;1.00;;;17.80;50.50;;;;;;5035581;28;20333;-91
2022/04/08 04:15:08;;;;;;;2.03;1.20;;;17.60;51.00;;;;;;5034924;28;20436;-92
2022/04/08 04:17:35;;;;;;;1.97;1.00;;;17.40;51.50;;;;;;5036022;28;20214;-92
2022/04/08 04:20:01;;;;;;;1.33;0.83;;;17.30;52.00;;;;;;5035174;28;20188;-92
2022/04/08 04:22:27;;;;;;;2.27;1.10;;;17.10;52.30;;;;;;5033052;28;20169;-92
2022/04/08 04:24:53;;;;;;;1.53;1.00;;;17.00;52.70;;;;;;5034406;28;20172;-92
2022/04/08 04:27:18;;;;;;;2.00;0.90;;;16.90;53.10;;;;;;5033595;28;20173;-92
2022/04/08 04:29:44;;;;;;;2.00;1.00;;;16.80;53.40;;;;;;5036411;28;20170;-92
2022/04/08 04:32:10;;;;;;;1.57;0.90;;;16.70;53.70;;;;;;5033861;28;20174;-92
2022/04/08 04:34:38;;;;;;;0.90;0.60;;;16.60;54.00;;;;;;5034367;28;20244;-92
2022/04/08 04:37:04;;;;;;;3.23;0.93;;;16.60;54.30;;;;;;5034403;28;20175;-92
2022/04/08 04:39:31;;;;;;;2.77;1.00;;;16.50;54.60;;;;;;5034502;28;20206;-92
2022/04/08 04:41:57;;;;;;;2.53;0.90;;;16.40;54.80;;;;;;5034052;28;20171;-92
2022/04/08 04:44:23;;;;;;;1.10;0.80;;;16.40;55.00;;;;;;5032238;28;20237;-92
2022/04/08 04:46:49;;;;;;;2.10;1.10;;;16.40;55.20;;;;;;5033026;28;20536;-92
2022/04/08 04:49:15;;;;;;;1.90;1.00;;;16.60;54.90;;;;;;5031702;28;20182;-92
2022/04/08 04:51:40;;;;;;;2.23;1.00;;;16.80;54.30;;;;;;5034409;28;20186;-94
2022/04/08 04:54:06;;;;;;;1.43;0.80;;;17.10;54.00;;;;;;5034044;28;20188;-93
2022/04/08 04:56:32;;;;;;;1.77;1.10;;;17.80;52.40;;;;;;5034077;28;20183;-94
2022/04/08 04:58:58;;;;;;;0.87;0.77;;;18.40;51.00;;;;;;5033200;28;20206;-93
2022/04/08 05:01:24;;;;;;;1.53;1.03;;;18.80;50.00;;;;;;5033797;28;20175;-94
2022/04/08 05:03:50;;;;;;;1.43;0.97;;;18.90;49.60;;;;;;5033956;28;20182;-94
2022/04/08 05:06:15;;;;;;;1.10;0.80;;;19.00;49.30;;;;;;5030678;28;20169;-93
2022/04/08 05:08:41;;;;;;;1.27;0.90;;;19.00;49.20;;;;;;5031573;28;20556;-94
2022/04/08 05:11:07;;;;;;;1.37;1.00;;;19.10;49.00;;;;;;5031624;28;20550;-93
2022/04/08 05:13:33;;;;;;;2.33;0.90;;;19.00;48.90;;;;;;5030762;28;20173;-93
2022/04/08 05:15:59;;;;;;;1.30;0.90;;;19.00;49.00;;;;;;5032737;28;20214;-93
2022/04/08 05:18:25;;;;;;;1.63;1.03;;;19.00;49.00;;;;;;5031739;28;20218;-94
2022/04/08 05:20:52;;;;;;;2.00;1.07;;;19.00;48.90;;;;;;5032062;28;20169;-94
2022/04/08 05:23:19;;;;;;;1.23;0.87;;;18.80;49.10;;;;;;5033080;28;20179;-93
2022/04/08 05:25:45;;;;;;;1.70;0.93;;;18.60;49.70;;;;;;5032035;28;20175;-93
2022/04/08 05:28:12;;;;;;;1.30;0.90;;;18.40;49.70;;;;;;5030607;28;20198;-94
2022/04/08 05:30:38;;;;;;;1.93;0.90;;;18.40;50.00;;;;;;5031155;28;20184;-94
2022/04/08 05:33:04;;;;;;;1.80;0.90;;;18.20;50.20;;;;;;5029797;28;20185;-94
2022/04/08 05:35:30;;;;;;;2.73;0.80;;;18.00;50.50;;;;;;5027847;28;20186;-93
2022/04/08 05:37:56;;;;;;;1.73;1.07;;;17.80;50.80;;;;;;5029206;28;20243;-94
2022/04/08 05:40:21;;;;;;;1.23;0.90;;;17.70;51.30;;;;;;5028882;28;20262;-93
2022/04/08 05:42:50;;;;;;;1.57;1.00;;;17.50;51.60;;;;;;5028140;28;20181;-94
2022/04/08 05:45:20;;;;;;;1.73;1.00;;;17.30;51.90;;;;;;5028446;28;20212;-94
2022/04/08 05:47:54;;;;;;;1.73;1.00;;;17.20;52.30;;;;;;5027362;28;20194;-93
2022/04/08 05:50:20;;;;;;;2.87;1.00;;;17.10;52.60;;;;;;5028892;28;20209;-93
2022/04/08 05:52:51;;;;;;;1.20;0.80;;;17.10;52.80;;;;;;5024841;28;20636;-93
2022/04/08 05:55:17;;;;;;;1.80;1.10;;;17.10;52.90;;;;;;5027620;28;20192;-93
2022/04/08 05:57:43;;;;;;;1.33;0.87;;;17.10;52.90;;;;;;5026897;28;20421;-93
2022/04/08 06:00:11;;;;;;;2.30;1.00;;;17.20;52.80;;;;;;5028060;28;20241;-94
2022/04/08 06:02:38;;;;;;;1.67;1.00;;;17.20;52.70;;;;;;5027877;28;20432;-93
2022/04/08 06:05:05;;;;;;;1.53;0.90;;;17.30;52.70;;;;;;5029822;28;20186;-93
2022/04/08 06:07:31;;;;;;;1.63;1.00;;;17.30;52.60;;;;;;5028954;28;20175;-93
2022/04/08 06:09:59;;;;;;;2.47;1.00;;;17.30;52.50;;;;;;5028809;28;20200;-94
2022/04/08 06:12:25;;;;;;;2.40;1.10;;;17.40;52.40;;;;;;5028872;28;20278;-93
2022/04/08 06:14:51;;;;;;;1.40;1.00;;;17.50;52.10;;;;;;5027842;28;20185;-93
2022/04/08 06:17:16;;;;;;;1.50;1.00;;;17.70;51.80;;;;;;5027582;28;20209;-94
2022/04/08 06:19:45;;;;;;;1.83;0.90;;;17.80;51.40;;;;;;5027805;28;20223;-93
2022/04/08 06:22:11;;;;;;;1.30;1.00;;;18.00;51.10;;;;;;5028694;28;20177;-93
2022/04/08 06:24:37;;;;;;;1.17;0.90;;;18.30;50.60;;;;;;5027739;28;20180;-93
2022/04/08 06:27:03;;;;;;;1.53;1.00;;;18.60;50.00;;;;;;5031704;28;20183;-93
2022/04/08 06:29:29;;;;;;;1.10;0.90;;;18.80;49.40;;;;;;5029003;28;20185;-92
2022/04/08 06:31:55;;;;;;;2.07;1.00;;;19.00;49.20;;;;;;5028278;28;20191;-92
2022/04/08 06:34:20;;;;;;;1.60;1.20;;;19.00;48.90;;;;;;5029313;28;20226;-93
2022/04/08 06:36:46;;;;;;;1.83;1.00;;;19.10;48.80;;;;;;5026901;28;20274;-93
2022/04/08 06:39:12;;;;;;;1.67;1.10;;;19.20;48.60;;;;;;5026025;28;20209;-92
2022/04/08 06:41:38;;;;;;;1.43;1.10;;;19.20;48.40;;;;;;5026181;28;20186;-93
2022/04/08 06:44:04;;;;;;;1.37;0.90;;;19.20;48.30;;;;;;5027706;28;20345;-93
2022/04/08 06:46:30;;;;;;;2.80;1.00;;;19.30;48.30;;;;;;5027264;28;20177;-93
2022/04/08 06:48:56;;;;;;;1.70;1.10;;;19.30;48.30;;;;;;5026757;28;20275;-93
2022/04/08 06:51:22;;;;;;;1.60;0.90;;;19.20;48.20;;;;;;5025928;28;20275;-93
2022/04/08 06:53:48;;;;;;;2.40;0.83;;;19.10;48.50;;;;;;5027423;28;20891;-93
2022/04/08 06:56:14;;;;;;;1.97;1.10;;;19.00;48.50;;;;;;5028833;28;20196;-93
2022/04/08 06:58:39;;;;;;;1.77;1.00;;;19.10;48.50;;;;;;5027962;28;20219;-93
2022/04/08 07:01:08;;;;;;;1.93;1.00;;;18.90;48.70;;;;;;5026924;28;20192;-94
2022/04/08 07:03:34;;;;;;;1.73;1.03;;;18.70;48.90;;;;;;5028201;28;20204;-93
2022/04/08 07:06:00;;;;;;;1.03;0.83;;;18.60;49.30;;;;;;5028722;28;20567;-94
2022/04/08 07:08:26;;;;;;;1.40;1.10;;;18.60;49.40;;;;;;5029817;28;20176;-93
2022/04/08 07:10:51;;;;;;;2.23;1.00;;;18.50;49.50;;;;;;5029340;28;20183;-94
2022/04/08 07:13:17;;;;;;;1.30;1.03;;;18.40;49.60;;;;;;5029821;28;20190;-94
2022/04/08 07:15:43;;;;;;;1.73;1.10;;;18.40;49.60;;;;;;5028462;28;20180;-93
2022/04/08 07:18:09;;;;;;;1.30;1.00;;;18.40;50.10;;;;;;5025944;28;20247;-94
2022/04/08 07:20:34;;;;;;;1.40;0.90;;;18.40;49.70;;;;;;5027271;28;20176;-93
2022/04/08 07:23:02;;;;;;;1.50;0.90;;;18.30;49.80;;;;;;5027611;28;20230;-93
2022/04/08 07:25:29;;;;;;;1.53;1.00;;;18.20;50.00;;;;;;5030475;28;20324;-93
2022/04/08 07:27:56;;;;;;;1.20;0.80;;;18.20;50.00;;;;;;5030592;28;20270;-93
2022/04/08 07:30:23;;;;;;;1.20;0.87;;;18.10;50.20;;;;;;5032111;28;20363;-93
2022/04/08 07:32:54;;;;;;;2.47;1.00;;;18.00;50.50;;;;;;5031133;28;20307;-93
2022/04/08 07:35:30;;;;;;;1.83;1.00;;;17.90;50.80;;;;;;5031848;28;20302;-93
2022/04/08 07:37:56;;;;;;;1.70;1.00;;;17.90;51.30;;;;;;5030821;28;20325;-94
2022/04/08 07:40:23;;;;;;;1.33;1.13;;;17.80;51.70;;;;;;5032676;28;20544;-93
2022/04/08 07:42:49;;;;;;;2.13;1.07;;;17.80;51.80;;;;;;5035277;28;20167;-93
2022/04/08 07:45:15;;;;;;;2.07;1.10;;;17.80;51.90;;;;;;5029986;28;20483;-94
2022/04/08 07:47:41;;;;;;;4.03;1.10;;;17.90;52.00;;;;;;5028919;28;20544;-93
2022/04/08 07:50:10;;;;;;;2.00;1.20;;;17.80;52.20;;;;;;5029184;28;20279;-93
2022/04/08 07:52:36;;;;;;;4.27;1.20;;;17.70;52.40;;;;;;5032255;28;20173;-93
2022/04/08 07:55:02;;;;;;;1.47;1.00;;;17.60;52.70;;;;;;5032691;28;20176;-94
2022/04/08 07:57:28;;;;;;;5.70;1.40;;;17.60;53.00;;;;;;5031549;28;20185;-93
2022/04/08 07:59:54;;;;;;;3.23;1.37;;;17.60;53.10;;;;;;5031129;28;20211;-94
2022/04/08 08:02:19;;;;;;;3.70;1.00;;;17.60;53.30;;;;;;5030300;28;20172;-93
2022/04/08 08:04:45;;;;;;;4.60;1.27;;;17.50;53.30;;;;;;5029253;28;20276;-94
2022/04/08 08:07:12;;;;;;;4.33;1.37;;;17.50;53.40;;;;;;5029685;28;20165;-94
2022/04/08 08:09:39;;;;;;;1.10;1.00;;;17.50;53.40;;;;;;5030242;28;20180;-93
2022/04/08 08:12:05;;;;;;;4.07;1.23;;;17.70;53.30;;;;;;5029879;28;20212;-93
2022/04/08 08:14:31;;;;;;;4.87;1.40;;;18.00;52.80;;;;;;5032112;28;20198;-93
2022/04/08 08:16:57;;;;;;;2.47;1.23;;;18.20;52.30;;;;;;5029616;28;20180;-92
2022/04/08 08:19:23;;;;;;;4.00;1.40;;;18.50;51.60;;;;;;5029896;28;20213;-93
2022/04/08 08:21:48;;;;;;;3.77;1.30;;;18.80;50.90;;;;;;5030238;28;20262;-93
2022/04/08 08:24:14;;;;;;;4.40;1.60;;;19.00;50.50;;;;;;5029821;28;20572;-94
2022/04/08 08:26:40;;;;;;;4.40;2.03;;;19.10;50.00;;;;;;5030471;28;20176;-93
2022/04/08 08:29:06;;;;;;;3.60;1.60;;;19.20;49.60;;;;;;5029723;28;20582;-93
2022/04/08 08:31:32;;;;;;;4.43;1.63;;;19.30;49.30;;;;;;5027394;28;20180;-93
2022/04/08 08:33:58;;;;;;;5.50;1.50;;;19.40;49.20;;;;;;5026959;28;20183;-93
2022/04/08 08:36:23;;;;;;;2.70;1.50;;;19.50;49.00;;;;;;5026343;28;20183;-93
2022/04/08 08:38:49;;;;;;;7.73;1.93;;;19.50;48.90;;;;;;5030863;28;20208;-92
2022/04/08 08:41:18;;;;;;;5.47;1.60;;;19.40;48.90;;;;;;5027999;28;20177;-94
2022/04/08 08:43:45;;;;;;;2.20;1.30;;;19.20;49.10;;;;;;5030090;28;20436;-93
2022/04/08 08:46:12;;;;;;;2.83;1.50;;;19.10;49.20;;;;;;5028468;28;20169;-93
2022/04/08 08:48:38;;;;;;;4.73;1.50;;;19.00;49.40;;;;;;5028439;28;20239;-93
2022/04/08 08:51:06;;;;;;;2.70;1.33;;;18.80;49.70;;;;;;5029000;28;20187;-93
2022/04/08 08:53:33;;;;;;;3.57;1.53;;;18.70;49.90;;;;;;5027939;28;20169;-92
2022/04/08 08:56:00;;;;;;;3.23;1.23;;;18.60;50.00;;;;;;5027810;28;20400;-92
2022/04/08 08:58:29;;;;;;;5.73;1.60;;;18.40;50.30;;;;;;5026110;28;20197;-93
2022/04/08 09:00:55;;;;;;;5.47;1.40;;;18.20;50.60;;;;;;5028935;28;20233;-92
2022/04/08 09:03:21;;;;;;;5.90;1.67;;;18.10;50.90;;;;;;5029251;28;20491;-93
2022/04/08 09:05:50;;;;;;;2.30;1.40;;;18.00;51.10;;;;;;5028938;28;20320;-92
2022/04/08 09:08:15;;;;;;;4.27;1.57;;;18.00;51.20;;;;;;5028335;28;20643;-93
2022/04/08 09:10:43;;;;;;;4.40;1.70;;;17.90;51.40;;;;;;5028873;28;20310;-93
2022/04/08 09:13:10;;;;;;;5.93;1.67;;;17.80;51.60;;;;;;5029281;28;20177;-93
2022/04/08 09:15:39;;;;;;;6.03;1.50;;;17.70;51.80;;;;;;5027014;28;20349;-93
2022/04/08 09:18:14;;;;;;;8.23;1.47;;;17.60;52.10;;;;;;5026755;28;20586;-93
2022/04/08 09:20:42;;;;;;;4.43;1.30;;;17.60;52.20;;;;;;5027104;28;20275;-93
2022/04/08 09:23:09;;;;;;;3.07;1.40;;;17.60;52.40;;;;;;5028041;28;20174;-93
2022/04/08 09:25:35;;;;;;;6.27;1.73;;;17.60;52.40;;;;;;5029488;28;20636;-93
2022/04/08 09:28:12;;;;;;;5.17;1.30;;;17.50;52.50;;;;;;5028156;28;20235;-93
2022/04/08 09:30:39;;;;;;;3.70;1.50;;;17.50;52.60;;;;;;5027618;28;20175;-94
2022/04/08 09:33:20;;;;;;;7.67;1.87;;;17.40;52.70;;;;;;5026790;28;20227;-93
2022/04/08 09:35:48;;;;;;;6.10;1.50;;;17.50;52.70;;;;;;5027431;28;20269;-93
2022/04/08 09:38:22;;;;;;;4.37;1.30;;;17.50;52.60;;;;;;5025181;28;20699;-93
2022/04/08 09:40:50;;;;;;;7.83;1.73;;;17.60;52.90;;;;;;5025115;28;20201;-93
2022/04/08 09:43:16;;;;;;;4.83;1.70;;;17.60;52.70;;;;;;5025762;28;20555;-93
2022/04/08 09:45:43;;;;;;;4.67;1.50;;;17.60;52.60;;;;;;5026871;28;20434;-92
2022/04/08 09:48:09;;;;;;;5.00;1.50;;;17.60;52.50;;;;;;5027509;28;20594;-93
2022/04/08 09:50:37;;;;;;;4.50;1.57;;;17.60;52.40;;;;;;5027570;28;20180;-92
2022/04/08 09:53:04;;;;;;;3.73;1.47;;;17.70;52.30;;;;;;5028297;28;20578;-92
2022/04/08 09:55:30;;;;;;;3.03;1.30;;;17.80;52.10;;;;;;5027509;28;20197;-93
2022/04/08 09:57:58;;;;;;;5.03;1.43;;;17.90;51.80;;;;;;5027438;28;20217;-93
2022/04/08 10:00:27;;;;;;;3.30;1.43;;;18.00;51.50;;;;;;5026757;28;20437;-93
2022/04/08 10:02:54;;;;;;;4.37;1.60;;;18.10;51.30;;;;;;5028776;28;20479;-93
2022/04/08 10:05:22;;;;;;;5.87;1.50;;;18.10;51.10;;;;;;5026840;28;20191;-93
2022/04/08 10:07:52;;;;;;;1.97;1.30;;;18.20;51.00;;;;;;5028139;28;20595;-93
2022/04/08 10:10:22;;;;;;;3.27;1.50;;;18.20;50.90;;;;;;5027470;28;20359;-93
2022/04/08 10:13:03;;;;;;;3.10;1.47;;;18.30;50.80;;;;;;5027781;28;20174;-93
2022/04/08 10:15:40;;;;;;;5.10;1.50;;;18.30;50.60;;;;;;5026205;28;20171;-93
2022/04/08 10:18:06;;;;;;;3.93;1.27;;;18.40;50.40;;;;;;5026453;28;20213;-93
2022/04/08 10:20:33;;;;;;;4.80;1.57;;;18.40;50.20;;;;;;5026542;28;20567;-93
2022/04/08 10:23:11;;;;;;;3.93;1.40;;;18.50;50.20;;;;;;5026174;28;20286;-93
2022/04/08 10:25:41;;;;;;;3.70;1.40;;;18.50;50.10;;;;;;5025874;28;20231;-93
2022/04/08 10:28:11;;;;;;;8.37;1.30;;;18.50;50.10;;;;;;5028251;28;20183;-93
2022/04/08 10:30:50;;;;;;;3.80;1.33;;;18.40;50.10;;;;;;5025393;28;20235;-92
2022/04/08 10:33:27;;;;;;;2.57;1.40;;;18.40;50.00;;;;;;5025002;28;20492;-93
2022/04/08 10:36:01;;;;;;;3.13;1.30;;;18.30;50.10;;;;;;5025415;28;20416;-93
2022/04/08 10:38:38;;;;;;;3.90;1.30;;;18.30;50.20;;;;;;5024360;28;20475;-93
2022/04/08 10:41:08;;;;;;;2.97;1.13;;;18.20;50.20;;;;;;5024807;28;20198;-93
2022/04/08 10:43:48;;;;;;;2.73;1.27;;;18.20;50.20;;;;;;5024783;28;20204;-93
2022/04/08 10:46:32;;;;;;;1.50;1.10;;;18.10;50.30;;;;;;5025276;28;20175;-93
2022/04/08 10:48:58;;;;;;;3.53;1.27;;;18.00;50.40;;;;;;5024388;28;20191;-93
2022/04/08 10:51:32;;;;;;;1.83;1.00;;;17.90;50.50;;;;;;5021573;28;20175;-93
2022/04/08 10:54:05;;;;;;;2.50;1.10;;;17.80;50.60;;;;;;5024808;28;20383;-93
2022/04/08 10:56:37;;;;;;;2.37;1.07;;;17.70;50.70;;;;;;5025878;28;20209;-92
2022/04/08 10:59:04;;;;;;;2.70;1.20;;;17.70;50.80;;;;;;5024733;28;20506;-93
2022/04/08 11:01:34;;;;;;;3.10;1.30;;;17.60;50.90;;;;;;5028431;28;20230;-92
2022/04/08 11:04:07;;;;;;;3.93;1.17;;;17.60;51.00;;;;;;5028715;28;20198;-93
2022/04/08 11:06:34;;;;;;;4.03;1.20;;;17.50;51.10;;;;;;5027041;28;20348;-93
2022/04/08 11:09:19;;;;;;;3.57;1.30;;;17.50;51.20;;;;;;5026823;28;20245;-92
2022/04/08 11:11:52;;;;;;;1.50;1.07;;;17.50;51.30;;;;;;5027679;28;20333;-93
2022/04/08 11:14:18;;;;;;;4.33;1.13;;;17.40;51.30;;;;;;5027156;28;20181;-93
2022/04/08 11:16:46;;;;;;;4.27;1.27;;;17.40;51.40;;;;;;5027967;28;20207;-92
2022/04/08 11:19:12;;;;;;;2.83;1.20;;;17.40;51.50;;;;;;5027821;28;20238;-92
2022/04/08 11:21:40;;;;;;;2.27;1.10;;;17.30;51.40;;;;;;5027914;28;20438;-92
2022/04/08 11:24:14;;;;;;;2.03;1.03;;;17.30;51.50;;;;;;5028184;28;20360;-92
2022/04/08 11:26:47;;;;;;;3.63;1.43;;;17.30;51.50;;;;;;5048246;28;20191;-93
2022/04/08 11:29:17;;;;;;;3.17;1.20;;;17.30;51.50;;;;;;5049335;28;20179;-92
2022/04/08 11:31:45;;;;;;;1.40;1.00;;;17.30;51.50;;;;;;5045177;28;20235;-91
2022/04/08 11:34:15;;;;;;;1.77;1.20;;;17.30;51.60;;;;;;5045338;28;20217;-92
2022/04/08 11:36:41;;;;;;;1.60;1.00;;;17.30;51.60;;;;;;5045209;28;20501;-92
2022/04/08 11:39:08;;;;;;;2.30;1.00;;;17.30;51.60;;;;;;5046810;28;20206;-91
2022/04/08 11:41:36;;;;;;;3.33;1.10;;;17.30;51.60;;;;;;5047056;28;20181;-92
2022/04/08 11:44:03;;;;;;;2.13;1.07;;;17.30;51.60;;;;;;5048198;28;20171;-92
2022/04/08 11:46:29;;;;;;;1.60;1.03;;;17.30;51.60;;;;;;5048048;28;20174;-92
2022/04/08 11:48:55;;;;;;;1.47;1.00;;;17.30;51.60;;;;;;5048405;28;20446;-91
2022/04/08 11:51:21;;;;;;;1.63;1.17;;;17.30;51.50;;;;;;5047005;28;20235;-91
2022/04/08 11:53:49;;;;;;;2.23;1.10;;;17.30;51.50;;;;;;5045939;28;20186;-91
2022/04/08 11:56:28;;;;;;;3.33;1.20;;;17.30;51.50;;;;;;5046158;28;20237;-91
2022/04/08 11:59:05;;;;;;;2.30;1.17;;;17.30;51.50;;;;;;5045780;28;20382;-91
2022/04/08 12:01:32;;;;;;;1.60;1.20;;;17.30;51.50;;;;;;5047075;28;20175;-92
2022/04/08 12:04:03;;;;;;;2.77;1.30;;;17.20;51.50;;;;;;5046892;28;20264;-92
2022/04/08 12:06:46;;;;;;;3.07;1.17;;;17.30;51.60;;;;;;5047824;28;20240;-92
2022/04/08 12:09:14;;;;;;;2.63;1.17;;;17.30;51.60;;;;;;5047193;28;20189;-92
2022/04/08 12:11:42;;;;;;;2.57;1.20;;;17.30;51.60;;;;;;5046634;28;20298;-92
2022/04/08 12:14:09;;;;;;;1.80;1.10;;;17.30;52.00;;;;;;5044781;28;20582;-92
2022/04/08 12:16:37;;;;;;;3.17;1.10;;;17.20;51.50;;;;;;5043736;28;20183;-93
2022/04/08 12:19:03;;;;;;;2.23;0.93;;;17.30;51.60;;;;;;5043050;28;20242;-92
2022/04/08 12:21:31;;;;;;;1.30;1.03;;;17.30;51.60;;;;;;5046713;28;20169;-92
2022/04/08 12:24:02;;;;;;;2.17;1.07;;;17.30;51.50;;;;;;5046548;28;20203;-92
2022/04/08 12:26:31;;;;;;;3.03;1.40;;;17.40;51.50;;;;;;5045392;28;20169;-92
2022/04/08 12:29:14;;;;;;;1.80;1.20;;;17.50;51.40;;;;;;5047010;28;20189;-92
2022/04/08 12:31:54;;;;;;;2.77;1.30;;;17.70;51.10;;;;;;5047517;28;20475;-92
2022/04/08 12:34:21;;;;;;;1.90;1.10;;;17.90;50.80;;;;;;5047053;28;20209;-92
2022/04/08 12:36:48;;;;;;;1.50;1.20;;;18.10;50.40;;;;;;5047624;28;20188;-93
2022/04/08 12:39:15;;;;;;;2.50;1.17;;;18.30;50.10;;;;;;5045067;28;20310;-93
2022/04/08 12:41:46;;;;;;;2.17;1.30;;;18.50;49.80;;;;;;5046295;28;20242;-93
2022/04/08 12:44:13;;;;;;;1.47;1.27;;;18.60;49.40;;;;;;5044698;28;20195;-93
2022/04/08 12:46:39;;;;;;;2.67;1.30;;;18.80;49.20;;;;;;5046718;28;20602;-93
2022/04/08 12:49:06;;;;;;;1.80;1.20;;;18.80;48.90;;;;;;5046608;28;20458;-93